sensor_id;sensor_type;location;lat;lon;timestamp;pressure;altitude;pressure_sealevel;temperature;humidity
74372;BME280;62885;51.374;6.170;2023-11-22T00:00:14;63011.47;;;4.67;100.00
74372;BME280;62885;51.374;6.170;2023-11-22T00:02:39;63037.72;;;4.67;100.00
74372;BME280;62885;51.374;6.170;2023-11-22T00:05:06;63007.78;;;4.66;100.00
74372;BME280;62885;51.374;6.170;2023-11-22T00:07:34;63009.84;;;4.65;100.00
74372;BME280;62885;51.374;6.170;2023-11-22T00:09:59;63037.19;;;4.66;100.00
74372;BME280;62885;51.374;6.170;2023-11-22T00:12:26;63038.22;;;4.65;100.00
74372;BME280;62885;51.374;6.170;2023-11-22T00:14:53;62998.56;;;4.57;100.00
74372;BME280;62885;51.374;6.170;2023-11-22T00:17:18;63029.09;;;4.59;100.00
74372;BME280;62885;51.374;6.170;2023-11-22T00:19:44;62997.34;;;4.51;100.00
74372;BME280;62885;51.374;6.170;2023-11-22T00:22:10;62970.84;;;4.43;100.00
74372;BME280;62885;51.374;6.170;2023-11-22T00:24:40;62983.91;;;4.41;100.00
74372;BME280;62885;51.374;6.170;2023-11-22T00:27:06;62969.84;;;4.28;100.00
74372;BME280;62885;51.374;6.170;2023-11-22T00:29:31;62969.75;;;4.25;100.00
74372;BME280;62885;51.374;6.170;2023-11-22T00:31:57;62945.44;;;4.20;100.00
74372;BME280;62885;51.374;6.170;2023-11-22T00:34:22;62989.06;;;4.21;100.00
74372;BME280;62885;51.374;6.170;2023-11-22T00:36:48;62990.00;;;4.17;100.00
74372;BME280;62885;51.374;6.170;2023-11-22T00:39:14;62957.97;;;4.17;100.00
74372;BME280;62885;51.374;6.170;2023-11-22T00:41:39;62948.78;;;4.08;100.00
74372;BME280;62885;51.374;6.170;2023-11-22T00:44:05;62957.88;;;4.14;100.00
74372;BME280;62885;51.374;6.170;2023-11-22T00:46:32;62980.97;;;4.13;100.00
74372;BME280;62885;51.374;6.170;2023-11-22T00:48:57;62953.66;;;4.12;100.00
74372;BME280;62885;51.374;6.170;2023-11-22T00:51:23;62985.75;;;4.16;100.00
74372;BME280;62885;51.374;6.170;2023-11-22T00:53:48;62945.53;;;4.05;100.00
74372;BME280;62885;51.374;6.170;2023-11-22T00:56:15;62951.94;;;4.08;100.00
74372;BME280;62885;51.374;6.170;2023-11-22T00:58:40;62939.66;;;4.02;100.00
74372;BME280;62885;51.374;6.170;2023-11-22T01:01:06;62973.78;;;4.02;100.00
74372;BME280;62885;51.374;6.170;2023-11-22T01:03:31;62967.47;;;4.01;100.00
74372;BME280;62885;51.374;6.170;2023-11-22T01:05:57;62957.19;;;3.91;100.00
74372;BME280;62885;51.374;6.170;2023-11-22T01:08:23;62929.84;;;3.90;100.00
74372;BME280;62885;51.374;6.170;2023-11-22T01:10:48;62927.16;;;3.88;100.00
74372;BME280;62885;51.374;6.170;2023-11-22T01:13:13;62925.00;;;3.86;100.00
74372;BME280;62885;51.374;6.170;2023-11-22T01:15:40;62917.44;;;3.79;100.00
74372;BME280;62885;51.374;6.170;2023-11-22T01:18:06;62936.66;;;3.72;100.00
74372;BME280;62885;51.374;6.170;2023-11-22T01:20:32;62907.19;;;3.69;100.00
74372;BME280;62885;51.374;6.170;2023-11-22T01:22:57;62912.56;;;3.74;100.00
74372;BME280;62885;51.374;6.170;2023-11-22T01:25:24;62930.16;;;3.66;100.00
74372;BME280;62885;51.374;6.170;2023-11-22T01:27:50;62904.50;;;3.66;100.00
74372;BME280;62885;51.374;6.170;2023-11-22T01:30:15;62903.31;;;3.63;100.00
74372;BME280;62885;51.374;6.170;2023-11-22T01:32:40;62906.63;;;3.68;100.00
74372;BME280;62885;51.374;6.170;2023-11-22T01:35:06;62891.97;;;3.69;100.00
74372;BME280;62885;51.374;6.170;2023-11-22T01:37:31;62929.09;;;3.65;100.00
74372;BME280;62885;51.374;6.170;2023-11-22T01:39:58;62935.56;;;3.71;100.00
74372;BME280;62885;51.374;6.170;2023-11-22T01:42:23;62897.91;;;3.58;100.00
74372;BME280;62885;51.374;6.170;2023-11-22T01:44:50;62902.38;;;3.67;100.00
74372;BME280;62885;51.374;6.170;2023-11-22T01:47:16;62909.25;;;3.68;100.00
74372;BME280;62885;51.374;6.170;2023-11-22T01:49:42;62903.94;;;3.66;100.00
74372;BME280;62885;51.374;6.170;2023-11-22T01:52:08;62913.88;;;3.48;100.00
74372;BME280;62885;51.374;6.170;2023-11-22T01:54:34;62901.53;;;3.39;100.00
74372;BME280;62885;51.374;6.170;2023-11-22T01:56:59;62885.03;;;3.48;100.00
74372;BME280;62885;51.374;6.170;2023-11-22T01:59:27;62910.09;;;3.45;100.00
74372;BME280;62885;51.374;6.170;2023-11-22T02:01:53;62899.38;;;3.37;100.00
74372;BME280;62885;51.374;6.170;2023-11-22T02:04:19;62909.63;;;3.47;100.00
74372;BME280;62885;51.374;6.170;2023-11-22T02:06:46;62905.31;;;3.43;100.00
74372;BME280;62885;51.374;6.170;2023-11-22T02:09:11;62892.34;;;3.30;100.00
74372;BME280;62885;51.374;6.170;2023-11-22T02:11:43;62870.47;;;3.35;100.00
74372;BME280;62885;51.374;6.170;2023-11-22T02:14:10;62904.22;;;3.42;100.00
74372;BME280;62885;51.374;6.170;2023-11-22T02:16:37;62901.53;;;3.39;100.00
74372;BME280;62885;51.374;6.170;2023-11-22T02:19:03;62873.06;;;3.35;100.00
74372;BME280;62885;51.374;6.170;2023-11-22T02:21:30;62881.78;;;3.45;100.00
74372;BME280;62885;51.374;6.170;2023-11-22T02:23:55;62884.97;;;3.46;100.00
74372;BME280;62885;51.374;6.170;2023-11-22T02:26:21;62919.75;;;3.51;100.00
74372;BME280;62885;51.374;6.170;2023-11-22T02:28:46;62883.88;;;3.45;100.00
74372;BME280;62885;51.374;6.170;2023-11-22T02:31:13;62923.59;;;3.57;100.00
74372;BME280;62885;51.374;6.170;2023-11-22T02:33:38;62902.06;;;3.40;100.00
74372;BME280;62885;51.374;6.170;2023-11-22T02:36:05;62883.34;;;3.44;100.00
74372;BME280;62885;51.374;6.170;2023-11-22T02:38:31;62880.72;;;3.44;100.00
74372;BME280;62885;51.374;6.170;2023-11-22T02:40:56;62899.84;;;3.35;100.00
74372;BME280;62885;51.374;6.170;2023-11-22T02:43:23;62895.50;;;3.31;100.00
74372;BME280;62885;51.374;6.170;2023-11-22T02:45:49;62871.53;;;3.36;100.00
74372;BME280;62885;51.374;6.170;2023-11-22T02:48:14;62874.22;;;3.38;100.00
74372;BME280;62885;51.374;6.170;2023-11-22T02:50:40;62898.28;;;3.36;100.00
74372;BME280;62885;51.374;6.170;2023-11-22T02:53:08;62882.78;;;3.44;100.00
74372;BME280;62885;51.374;6.170;2023-11-22T02:55:34;62889.81;;;3.50;100.00
74372;BME280;62885;51.374;6.170;2023-11-22T02:57:59;62875.31;;;3.39;100.00
74372;BME280;62885;51.374;6.170;2023-11-22T03:00:24;62912.88;;;3.50;100.00
74372;BME280;62885;51.374;6.170;2023-11-22T03:02:50;62879.09;;;3.43;100.00
74372;BME280;62885;51.374;6.170;2023-11-22T03:05:20;62872.09;;;3.36;100.00
74372;BME280;62885;51.374;6.170;2023-11-22T03:07:46;62887.19;;;3.50;100.00
74372;BME280;62885;51.374;6.170;2023-11-22T03:10:11;62880.16;;;3.44;100.00
74372;BME280;62885;51.374;6.170;2023-11-22T03:12:38;62909.09;;;3.46;100.00
74372;BME280;62885;51.374;6.170;2023-11-22T03:15:04;62888.22;;;3.49;100.00
74372;BME280;62885;51.374;6.170;2023-11-22T03:17:30;62902.59;;;3.40;100.00
74372;BME280;62885;51.374;6.170;2023-11-22T03:19:57;62887.66;;;3.48;100.00
74372;BME280;62885;51.374;6.170;2023-11-22T03:22:23;62927.47;;;3.63;100.00
74372;BME280;62885;51.374;6.170;2023-11-22T03:24:49;62920.91;;;3.55;100.00
74372;BME280;62885;51.374;6.170;2023-11-22T03:27:14;62886.03;;;3.47;100.00
74372;BME280;62885;51.374;6.170;2023-11-22T03:29:40;62890.97;;;3.54;100.00
74372;BME280;62885;51.374;6.170;2023-11-22T03:32:06;62895.28;;;3.58;100.00
74372;BME280;62885;51.374;6.170;2023-11-22T03:34:31;62885.03;;;3.48;100.00
74372;BME280;62885;51.374;6.170;2023-11-22T03:36:56;62889.81;;;3.50;100.00
74372;BME280;62885;51.374;6.170;2023-11-22T03:39:22;62929.09;;;3.65;100.00
74372;BME280;62885;51.374;6.170;2023-11-22T03:41:48;62898.00;;;3.60;100.00
74372;BME280;62885;51.374;6.170;2023-11-22T03:44:13;62912.50;;;3.71;100.00
74372;BME280;62885;51.374;6.170;2023-11-22T03:46:39;62895.28;;;3.58;100.00
74372;BME280;62885;51.374;6.170;2023-11-22T03:49:05;62904.00;;;3.68;100.00
74372;BME280;62885;51.374;6.170;2023-11-22T03:51:32;62899.06;;;3.61;100.00
74372;BME280;62885;51.374;6.170;2023-11-22T03:53:58;62904.00;;;3.68;100.00
74372;BME280;62885;51.374;6.170;2023-11-22T03:56:24;62903.41;;;3.65;100.00
74372;BME280;62885;51.374;6.170;2023-11-22T03:58:49;62901.78;;;3.64;100.00
74372;BME280;62885;51.374;6.170;2023-11-22T04:01:15;62907.13;;;3.66;100.00
74372;BME280;62885;51.374;6.170;2023-11-22T04:03:41;62933.84;;;3.67;100.00
74372;BME280;62885;51.374;6.170;2023-11-22T04:06:07;62899.69;;;3.64;100.00
74372;BME280;62885;51.374;6.170;2023-11-22T04:08:32;62933.94;;;3.69;100.00
74372;BME280;62885;51.374;6.170;2023-11-22T04:10:57;62910.97;;;3.72;100.00
74372;BME280;62885;51.374;6.170;2023-11-22T04:13:23;62940.44;;;3.76;100.00
74372;BME280;62885;51.374;6.170;2023-11-22T04:15:50;62913.59;;;3.72;100.00
74372;BME280;62885;51.374;6.170;2023-11-22T04:18:15;62939.81;;;3.72;100.00
74372;BME280;62885;51.374;6.170;2023-11-22T04:20:41;62908.25;;;3.70;100.00
74372;BME280;62885;51.374;6.170;2023-11-22T04:23:07;62893.06;;;3.70;100.00
74372;BME280;62885;51.374;6.170;2023-11-22T04:25:36;62928.47;;;3.62;100.00
74372;BME280;62885;51.374;6.170;2023-11-22T04:28:01;62895.28;;;3.58;100.00
74372;BME280;62885;51.374;6.170;2023-11-22T04:30:27;62900.16;;;3.62;100.00
74372;BME280;62885;51.374;6.170;2023-11-22T04:32:52;62919.28;;;3.53;100.00
74372;BME280;62885;51.374;6.170;2023-11-22T04:35:17;62900.38;;;3.36;100.00
74372;BME280;62885;51.374;6.170;2023-11-22T04:37:43;62862.97;;;3.30;100.00
74372;BME280;62885;51.374;6.170;2023-11-22T04:40:08;62889.03;;;3.25;100.00
74372;BME280;62885;51.374;6.170;2023-11-22T04:42:36;62887.50;;;3.26;100.00
74372;BME280;62885;51.374;6.170;2023-11-22T04:45:05;62854.81;;;3.20;100.00
74372;BME280;62885;51.374;6.170;2023-11-22T04:47:31;62857.44;;;3.20;100.00
74372;BME280;62885;51.374;6.170;2023-11-22T04:49:57;62861.19;;;3.23;100.00
74372;BME280;62885;51.374;6.170;2023-11-22T04:52:22;62857.03;;;3.24;100.00
74372;BME280;62885;51.374;6.170;2023-11-22T04:54:47;62856.34;;;3.19;100.00
74372;BME280;62885;51.374;6.170;2023-11-22T04:57:13;62849.88;;;3.13;100.00
74372;BME280;62885;51.374;6.170;2023-11-22T04:59:38;62849.88;;;3.13;100.00
74372;BME280;62885;51.374;6.170;2023-11-22T05:02:04;62871.28;;;3.11;100.00
74372;BME280;62885;51.374;6.170;2023-11-22T05:04:29;62853.19;;;3.18;100.00
74372;BME280;62885;51.374;6.170;2023-11-22T05:06:55;62834.28;;;3.01;100.00
74372;BME280;62885;51.374;6.170;2023-11-22T05:09:21;62833.22;;;3.00;100.00
74372;BME280;62885;51.374;6.170;2023-11-22T05:11:46;62868.06;;;3.08;100.00
74372;BME280;62885;51.374;6.170;2023-11-22T05:14:11;62833.75;;;3.00;100.00
74372;BME280;62885;51.374;6.170;2023-11-22T05:16:38;62846.63;;;3.10;100.00
74372;BME280;62885;51.374;6.170;2023-11-22T05:19:03;62832.66;;;2.99;100.00
74372;BME280;62885;51.374;6.170;2023-11-22T05:21:29;62851.31;;;2.92;100.00
74372;BME280;62885;51.374;6.170;2023-11-22T05:23:54;62845.84;;;2.84;100.00
74372;BME280;62885;51.374;6.170;2023-11-22T05:26:20;62842.69;;;2.84;100.00
74372;BME280;62885;51.374;6.170;2023-11-22T05:28:47;62822.41;;;2.89;100.00
74372;BME280;62885;51.374;6.170;2023-11-22T05:31:13;62816.41;;;2.81;100.00
74372;BME280;62885;51.374;6.170;2023-11-22T05:33:39;62846.84;;;2.83;100.00
74372;BME280;62885;51.374;6.170;2023-11-22T05:36:05;62816.50;;;2.84;100.00
74372;BME280;62885;51.374;6.170;2023-11-22T05:38:31;62838.88;;;2.80;100.00
74372;BME280;62885;51.374;6.170;2023-11-22T05:40:59;62816.41;;;2.81;100.00
74372;BME280;62885;51.374;6.170;2023-11-22T05:43:25;62823.25;;;2.66;100.00
74372;BME280;62885;51.374;6.170;2023-11-22T05:45:54;62797.06;;;2.66;100.00
74372;BME280;62885;51.374;6.170;2023-11-22T05:48:20;62792.22;;;2.61;100.00
74372;BME280;62885;51.374;6.170;2023-11-22T05:50:47;62823.69;;;2.64;100.00
74372;BME280;62885;51.374;6.170;2023-11-22T05:53:12;62787.88;;;2.57;100.00
74372;BME280;62885;51.374;6.170;2023-11-22T05:55:45;62815.13;;;2.58;100.00
74372;BME280;62885;51.374;6.170;2023-11-22T05:58:10;62805.97;;;2.50;100.00
74372;BME280;62885;51.374;6.170;2023-11-22T06:00:35;62778.78;;;2.51;100.00
74372;BME280;62885;51.374;6.170;2023-11-22T06:03:03;62774.47;;;2.47;100.00
74372;BME280;62885;51.374;6.170;2023-11-22T06:05:28;62818.28;;;2.59;100.00
74372;BME280;62885;51.374;6.170;2023-11-22T06:07:53;62766.31;;;2.37;100.00
74372;BME280;62885;51.374;6.170;2023-11-22T06:10:19;62790.25;;;2.32;100.00
74372;BME280;62885;51.374;6.170;2023-11-22T06:12:44;62791.41;;;2.36;100.00
74372;BME280;62885;51.374;6.170;2023-11-22T06:15:10;62774.31;;;2.42;100.00
74372;BME280;62885;51.374;6.170;2023-11-22T06:17:35;62775.41;;;2.43;100.00
74372;BME280;62885;51.374;6.170;2023-11-22T06:20:01;62767.31;;;2.35;100.00
74372;BME280;62885;51.374;6.170;2023-11-22T06:22:28;62763.00;;;2.31;100.00
74372;BME280;62885;51.374;6.170;2023-11-22T06:24:53;62780.25;;;2.47;100.00
74372;BME280;62885;51.374;6.170;2023-11-22T06:27:19;62801.09;;;2.45;100.00
74372;BME280;62885;51.374;6.170;2023-11-22T06:29:44;62779.16;;;2.46;100.00
74372;BME280;62885;51.374;6.170;2023-11-22T06:32:10;62798.88;;;2.40;100.00
74372;BME280;62885;51.374;6.170;2023-11-22T06:34:36;62776.50;;;2.44;100.00
74372;BME280;62885;51.374;6.170;2023-11-22T06:37:02;62771.63;;;2.39;100.00
74372;BME280;62885;51.374;6.170;2023-11-22T06:39:27;62776.50;;;2.44;100.00
74372;BME280;62885;51.374;6.170;2023-11-22T06:41:55;62803.81;;;2.47;100.00
74372;BME280;62885;51.374;6.170;2023-11-22T06:44:20;62769.53;;;2.40;100.00
74372;BME280;62885;51.374;6.170;2023-11-22T06:46:46;62793.56;;;2.38;100.00
74372;BME280;62885;51.374;6.170;2023-11-22T06:49:11;62770.16;;;2.43;100.00
74372;BME280;62885;51.374;6.170;2023-11-22T06:51:36;62760.44;;;2.34;100.00
74372;BME280;62885;51.374;6.170;2023-11-22T06:54:02;62797.34;;;2.41;100.00
74372;BME280;62885;51.374;6.170;2023-11-22T06:56:28;62788.97;;;2.58;100.00
74372;BME280;62885;51.374;6.170;2023-11-22T06:58:54;62777.09;;;2.47;100.00
74372;BME280;62885;51.374;6.170;2023-11-22T07:01:23;62798.13;;;2.67;100.00
74372;BME280;62885;51.374;6.170;2023-11-22T07:03:50;62776.00;;;2.46;100.00
74372;BME280;62885;51.374;6.170;2023-11-22T07:06:17;62767.31;;;2.35;100.00
74372;BME280;62885;51.374;6.170;2023-11-22T07:08:44;62775.47;;;2.45;100.00
74372;BME280;62885;51.374;6.170;2023-11-22T07:11:10;62823.00;;;2.58;100.00
74372;BME280;62885;51.374;6.170;2023-11-22T07:13:36;62827.56;;;2.70;100.00
74372;BME280;62885;51.374;6.170;2023-11-22T07:16:04;62802.91;;;2.69;100.00
74372;BME280;62885;51.374;6.170;2023-11-22T07:18:29;62804.16;;;2.75;100.00
74372;BME280;62885;51.374;6.170;2023-11-22T07:20:55;62833.97;;;2.73;100.00
74372;BME280;62885;51.374;6.170;2023-11-22T07:23:20;62801.47;;;2.72;100.00
74372;BME280;62885;51.374;6.170;2023-11-22T07:25:50;62779.16;;;2.46;100.00
74372;BME280;62885;51.374;6.170;2023-11-22T07:28:15;62802.13;;;2.43;100.00
74372;BME280;62885;51.374;6.170;2023-11-22T07:30:41;62768.47;;;2.39;100.00
74372;BME280;62885;51.374;6.170;2023-11-22T07:33:07;62773.25;;;2.41;100.00
74372;BME280;62885;51.374;6.170;2023-11-22T07:35:33;62772.16;;;2.40;100.00
74372;BME280;62885;51.374;6.170;2023-11-22T07:37:58;62788.09;;;2.30;100.00
74372;BME280;62885;51.374;6.170;2023-11-22T07:40:23;62756.06;;;2.27;100.00
74372;BME280;62885;51.374;6.170;2023-11-22T07:42:49;62777.19;;;2.50;100.00
74372;BME280;62885;51.374;6.170;2023-11-22T07:45:14;62833.50;;;2.75;100.00
74372;BME280;62885;51.374;6.170;2023-11-22T07:47:40;62788.91;;;2.56;100.00
74372;BME280;62885;51.374;6.170;2023-11-22T07:50:09;62803.81;;;2.47;100.00
74372;BME280;62885;51.374;6.170;2023-11-22T07:52:34;62779.88;;;2.52;100.00
74372;BME280;62885;51.374;6.170;2023-11-22T07:55:00;62799.13;;;2.65;100.00
74372;BME280;62885;51.374;6.170;2023-11-22T07:57:25;62799.22;;;2.68;100.00
74372;BME280;62885;51.374;6.170;2023-11-22T07:59:51;62845.38;;;2.86;100.00
74372;BME280;62885;51.374;6.170;2023-11-22T08:02:20;62832.66;;;2.99;100.00
74372;BME280;62885;51.374;6.170;2023-11-22T08:04:46;62862.03;;;3.00;100.00
74372;BME280;62885;51.374;6.170;2023-11-22T08:07:13;62807.31;;;2.75;100.00
74372;BME280;62885;51.374;6.170;2023-11-22T08:09:40;62811.63;;;2.79;100.00
74372;BME280;62885;51.374;6.170;2023-11-22T08:12:06;62811.09;;;2.79;100.00
74372;BME280;62885;51.374;6.170;2023-11-22T08:14:32;62831.34;;;2.73;100.00
74372;BME280;62885;51.374;6.170;2023-11-22T08:16:58;62825.94;;;2.68;100.00
74372;BME280;62885;51.374;6.170;2023-11-22T08:19:23;62804.53;;;2.70;100.00
74372;BME280;62885;51.374;6.170;2023-11-22T08:21:50;62799.75;;;2.68;100.00
74372;BME280;62885;51.374;6.170;2023-11-22T08:24:15;62818.63;;;2.86;100.00
74372;BME280;62885;51.374;6.170;2023-11-22T08:26:40;62829.97;;;2.97;100.00
74372;BME280;62885;51.374;6.170;2023-11-22T08:29:06;62836.19;;;2.78;100.00
74372;BME280;62885;51.374;6.170;2023-11-22T08:31:33;62845.91;;;2.87;100.00
74372;BME280;62885;51.374;6.170;2023-11-22T08:33:59;62864.25;;;3.04;100.00
74372;BME280;62885;51.374;6.170;2023-11-22T08:36:25;62848.25;;;3.11;100.00
74372;BME280;62885;51.374;6.170;2023-11-22T08:38:53;62850.94;;;3.14;100.00
74372;BME280;62885;51.374;6.170;2023-11-22T08:41:20;62865.06;;;3.29;100.00
74372;BME280;62885;51.374;6.170;2023-11-22T08:43:46;62892.81;;;3.28;100.00
74372;BME280;62885;51.374;6.170;2023-11-22T08:46:13;62851.56;;;3.17;100.00
74372;BME280;62885;51.374;6.170;2023-11-22T08:48:39;62852.09;;;3.17;100.00
74372;BME280;62885;51.374;6.170;2023-11-22T08:51:05;62858.50;;;3.21;100.00
74372;BME280;62885;51.374;6.170;2023-11-22T08:53:30;62846.78;;;3.15;100.00
74372;BME280;62885;51.374;6.170;2023-11-22T08:55:56;62847.72;;;3.28;100.00
74372;BME280;62885;51.374;6.170;2023-11-22T08:58:22;62885.34;;;3.24;100.00
74372;BME280;62885;51.374;6.170;2023-11-22T09:00:48;62860.81;;;3.28;100.00
74372;BME280;62885;51.374;6.170;2023-11-22T09:03:13;62880.09;;;3.41;100.00
74372;BME280;62885;51.374;6.170;2023-11-22T09:05:42;62919.81;;;3.54;100.00
74372;BME280;62885;51.374;6.170;2023-11-22T09:08:08;62879.09;;;3.43;100.00
74372;BME280;62885;51.374;6.170;2023-11-22T09:10:40;62862.84;;;3.42;100.00
74372;BME280;62885;51.374;6.170;2023-11-22T09:13:07;62908.47;;;3.43;100.00
74372;BME280;62885;51.374;6.170;2023-11-22T09:15:32;62913.88;;;3.48;100.00
74372;BME280;62885;51.374;6.170;2023-11-22T09:17:59;62887.19;;;3.50;100.00
74372;BME280;62885;51.374;6.170;2023-11-22T09:20:25;62908.72;;;3.68;100.00
74372;BME280;62885;51.374;6.170;2023-11-22T09:22:52;62905.63;;;3.70;100.00
74372;BME280;62885;51.374;6.170;2023-11-22T09:25:26;62922.91;;;3.86;100.00
74372;BME280;62885;51.374;6.170;2023-11-22T09:27:56;62949.09;;;3.84;100.00
74372;BME280;62885;51.374;6.170;2023-11-22T09:30:27;62949.25;;;4.06;100.00
74372;BME280;62885;51.374;6.170;2023-11-22T09:33:10;62960.03;;;4.16;100.00
74372;BME280;62885;51.374;6.170;2023-11-22T09:35:38;62938.44;;;3.96;100.00
74372;BME280;62885;51.374;6.170;2023-11-22T09:38:06;62971.78;;;4.05;100.00
74372;BME280;62885;51.374;6.170;2023-11-22T09:40:42;62948.78;;;4.08;100.00
74372;BME280;62885;51.374;6.170;2023-11-22T09:43:09;62988.53;;;4.21;100.00
74372;BME280;62885;51.374;6.170;2023-11-22T09:45:35;63005.31;;;4.36;100.00
74372;BME280;62885;51.374;6.170;2023-11-22T09:48:02;62984.44;;;4.41;100.00
74372;BME280;62885;51.374;6.170;2023-11-22T09:50:48;62994.63;;;4.48;100.00
74372;BME280;62885;51.374;6.170;2023-11-22T09:53:22;63020.38;;;4.48;100.00
74372;BME280;62885;51.374;6.170;2023-11-22T09:55:50;63031.78;;;4.61;100.00
74372;BME280;62885;51.374;6.170;2023-11-22T09:58:16;63021.13;;;4.73;100.00
74372;BME280;62885;51.374;6.170;2023-11-22T10:00:43;63026.53;;;4.78;100.00
74372;BME280;62885;51.374;6.170;2023-11-22T10:03:10;63021.28;;;4.78;100.00
74372;BME280;62885;51.374;6.170;2023-11-22T10:05:39;63052.88;;;4.81;100.00
74372;BME280;62885;51.374;6.170;2023-11-22T10:08:05;63035.28;;;4.89;100.00
74372;BME280;62885;51.374;6.170;2023-11-22T10:10:32;63040.69;;;4.94;100.00
74372;BME280;62885;51.374;6.170;2023-11-22T10:12:57;63077.69;;;5.02;100.00
74372;BME280;62885;51.374;6.170;2023-11-22T10:15:23;63050.41;;;5.03;100.00
74372;BME280;62885;51.374;6.170;2023-11-22T10:17:58;63053.56;;;5.04;100.00
74372;BME280;62885;51.374;6.170;2023-11-22T10:20:24;63055.34;;;5.10;100.00
74372;BME280;62885;51.374;6.170;2023-11-22T10:22:51;63090.13;;;5.13;100.00
74372;BME280;62885;51.374;6.170;2023-11-22T10:25:16;63095.09;;;5.20;100.00
74372;BME280;62885;51.374;6.170;2023-11-22T10:27:45;63099.41;;;5.24;100.00
74372;BME280;62885;51.374;6.170;2023-11-22T10:30:12;63073.19;;;5.27;100.00
74372;BME280;62885;51.374;6.170;2023-11-22T10:32:38;63079.63;;;5.30;100.00
74372;BME280;62885;51.374;6.170;2023-11-22T10:35:07;63084.50;;;5.35;100.00
74372;BME280;62885;51.374;6.170;2023-11-22T10:37:33;63086.09;;;5.36;100.00
74372;BME280;62885;51.374;6.170;2023-11-22T10:39:59;63075.22;;;5.41;100.00
74372;BME280;62885;51.374;6.170;2023-11-22T10:42:26;63122.16;;;5.46;100.00
74372;BME280;62885;51.374;6.170;2023-11-22T10:44:55;63133.44;;;5.54;100.00
74372;BME280;62885;51.374;6.170;2023-11-22T10:47:22;63138.38;;;5.61;100.00
74372;BME280;62885;51.374;6.170;2023-11-22T10:49:48;63109.38;;;5.58;100.00
74372;BME280;62885;51.374;6.170;2023-11-22T10:52:13;63116.50;;;5.67;100.00
74372;BME280;62885;51.374;6.170;2023-11-22T10:54:44;63119.13;;;5.67;100.00
74372;BME280;62885;51.374;6.170;2023-11-22T10:57:15;63119.66;;;5.68;100.00
74372;BME280;62885;51.374;6.170;2023-11-22T10:59:54;63130.56;;;5.81;100.00
74372;BME280;62885;51.374;6.170;2023-11-22T11:02:21;63166.00;;;5.87;100.00
74372;BME280;62885;51.374;6.170;2023-11-22T11:04:59;63187.16;;;6.06;100.00
74372;BME280;62885;51.374;6.170;2023-11-22T11:07:30;63170.56;;;6.15;100.00
74372;BME280;62885;51.374;6.170;2023-11-22T11:09:56;63168.94;;;6.14;100.00
74372;BME280;62885;51.374;6.170;2023-11-22T11:12:23;63167.31;;;6.12;100.00
74372;BME280;62885;51.374;6.170;2023-11-22T11:14:49;63160.28;;;6.06;100.00
74372;BME280;62885;51.374;6.170;2023-11-22T11:17:15;63198.53;;;6.17;100.00
74372;BME280;62885;51.374;6.170;2023-11-22T11:19:41;63173.81;;;6.18;100.00
74372;BME280;62885;51.374;6.170;2023-11-22T11:22:10;63182.50;;;6.27;100.00
74372;BME280;62885;51.374;6.170;2023-11-22T11:24:40;63173.81;;;6.18;100.00
74372;BME280;62885;51.374;6.170;2023-11-22T11:27:07;63174.34;;;6.19;100.00
74372;BME280;62885;51.374;6.170;2023-11-22T11:29:35;63199.59;;;6.18;100.00
74372;BME280;62885;51.374;6.170;2023-11-22T11:32:03;63209.38;;;6.27;100.00
74372;BME280;62885;51.374;6.170;2023-11-22T11:34:28;63168.41;;;6.13;100.00
74372;BME280;62885;51.374;6.170;2023-11-22T11:36:55;63168.94;;;6.14;100.00
74372;BME280;62885;51.374;6.170;2023-11-22T11:39:26;63199.59;;;6.18;100.00
74372;BME280;62885;51.374;6.170;2023-11-22T11:42:07;63198.53;;;6.17;100.00
74372;BME280;62885;51.374;6.170;2023-11-22T11:44:33;63158.00;;;6.18;100.00
74372;BME280;62885;51.374;6.170;2023-11-22T11:46:58;63168.41;;;6.13;97.06
74372;BME280;62885;51.374;6.170;2023-11-22T11:49:24;63158.56;;;6.19;96.99
74372;BME280;62885;51.374;6.170;2023-11-22T11:51:50;63181.94;;;6.26;96.90
74372;BME280;62885;51.374;6.170;2023-11-22T11:54:16;63214.16;;;6.29;97.86
74372;BME280;62885;51.374;6.170;2023-11-22T11:56:41;63216.41;;;6.34;98.05
74372;BME280;62885;51.374;6.170;2023-11-22T11:59:08;63226.69;;;6.43;96.05
74372;BME280;62885;51.374;6.170;2023-11-22T12:01:35;63230.47;;;6.47;94.86
74372;BME280;62885;51.374;6.170;2023-11-22T12:04:01;63202.53;;;6.45;95.34
74372;BME280;62885;51.374;6.170;2023-11-22T12:06:28;63222.91;;;6.40;94.16
74372;BME280;62885;51.374;6.170;2023-11-22T12:08:54;63227.78;;;6.44;94.68
74372;BME280;62885;51.374;6.170;2023-11-22T12:11:19;63187.44;;;6.34;95.13
74372;BME280;62885;51.374;6.170;2023-11-22T12:13:45;63170.09;;;6.17;96.89
74372;BME280;62885;51.374;6.170;2023-11-22T12:16:16;63192.03;;;6.11;96.90
74372;BME280;62885;51.374;6.170;2023-11-22T12:18:43;63186.06;;;6.05;97.91
74372;BME280;62885;51.374;6.170;2023-11-22T12:21:08;63138.00;;;6.00;100.00
74372;BME280;62885;51.374;6.170;2023-11-22T12:23:38;63159.81;;;6.08;100.00
74372;BME280;62885;51.374;6.170;2023-11-22T12:26:04;63161.44;;;6.09;100.00
74372;BME280;62885;51.374;6.170;2023-11-22T12:28:30;63175.78;;;5.96;100.00
74372;BME280;62885;51.374;6.170;2023-11-22T12:31:15;63150.53;;;5.97;100.00
74372;BME280;62885;51.374;6.170;2023-11-22T12:33:41;63187.16;;;6.06;100.00
74372;BME280;62885;51.374;6.170;2023-11-22T12:36:08;63154.94;;;6.03;100.00
74372;BME280;62885;51.374;6.170;2023-11-22T12:38:35;63164.06;;;6.09;100.00
74372;BME280;62885;51.374;6.170;2023-11-22T12:41:01;63175.44;;;6.20;100.00
74372;BME280;62885;51.374;6.170;2023-11-22T12:43:28;63173.28;;;6.18;100.00
74372;BME280;62885;51.374;6.170;2023-11-22T12:46:06;63200.63;;;6.16;100.00
74372;BME280;62885;51.374;6.170;2023-11-22T12:48:32;63167.84;;;6.13;100.00
74372;BME280;62885;51.374;6.170;2023-11-22T12:50:58;63189.31;;;6.08;100.00
74372;BME280;62885;51.374;6.170;2023-11-22T12:53:25;63161.84;;;6.05;100.00
74372;BME280;62885;51.374;6.170;2023-11-22T12:55:55;63141.25;;;6.03;100.00